Time;durP1;ratioP1;P1;durP2;ratioP2;P2;SDS_P1;SDS_P2;PMS_P1;PMS_P2;Temp;Humidity;BMP_temperature;BMP_pressure;BME280_temperature;BME280_humidity;BME280_pressure;Samples;Min_cycle;Max_cycle;Signal;HPM_P1;HPM_P2
2022/10/13 00:01:45;;;;;;;13.47;9.27;;;11.50;99.90;;;;;;4974695;28;20644;-84
2022/10/13 00:04:11;;;;;;;18.50;9.47;;;11.50;99.90;;;;;;5010879;28;20283;-84
2022/10/13 00:06:37;;;;;;;17.77;7.80;;;11.50;99.90;;;;;;4986696;28;20224;-84
2022/10/13 00:09:02;;;;;;;15.13;9.50;;;11.50;99.90;;;;;;4969623;28;20251;-84
2022/10/13 00:11:29;;;;;;;12.50;8.67;;;11.50;99.90;;;;;;4982741;28;20694;-85
2022/10/13 00:13:57;;;;;;;12.37;7.57;;;11.60;99.90;;;;;;4957846;28;20220;-88
2022/10/13 00:16:24;;;;;;;20.47;10.07;;;11.60;99.90;;;;;;4986213;28;20220;-85
2022/10/13 00:18:50;;;;;;;14.43;9.43;;;11.60;99.90;;;;;;4986269;28;20198;-86
2022/10/13 00:21:19;;;;;;;13.17;8.00;;;11.60;99.90;;;;;;4967099;28;20745;-85
2022/10/13 00:23:46;;;;;;;14.40;9.40;;;11.60;99.90;;;;;;4986413;28;20247;-87
2022/10/13 00:26:13;;;;;;;13.43;8.43;;;11.60;99.90;;;;;;4987441;28;20276;-84
2022/10/13 00:28:39;;;;;;;11.40;9.07;;;11.60;99.90;;;;;;4974586;28;20230;-85
2022/10/13 00:31:20;;;;;;;14.33;9.77;;;11.70;99.90;;;;;;4994356;28;20192;-84
2022/10/13 00:33:46;;;;;;;14.40;8.17;;;11.70;99.90;;;;;;4986163;28;20258;-85
2022/10/13 00:36:12;;;;;;;14.50;8.43;;;11.60;99.90;;;;;;4951945;28;20606;-84
2022/10/13 00:38:37;;;;;;;14.87;9.00;;;11.70;99.90;;;;;;4968258;28;20301;-85
2022/10/13 00:41:04;;;;;;;15.77;9.33;;;11.70;99.90;;;;;;4994705;28;20223;-86
2022/10/13 00:43:56;;;;;;;19.97;12.10;;;11.70;99.90;;;;;;4989357;28;20558;-86
2022/10/13 00:46:24;;;;;;;17.07;7.63;;;11.70;99.90;;;;;;4982795;28;20260;-85
2022/10/13 00:48:51;;;;;;;15.37;7.40;;;11.70;99.90;;;;;;4977539;28;20208;-83
2022/10/13 00:51:22;;;;;;;13.30;8.70;;;11.70;99.90;;;;;;4950194;28;20221;-83
2022/10/13 00:53:48;;;;;;;14.10;9.30;;;11.70;99.90;;;;;;4987117;28;20235;-83
2022/10/13 00:56:16;;;;;;;15.20;8.87;;;11.70;99.90;;;;;;4987839;28;20703;-82
2022/10/13 00:58:44;;;;;;;10.03;8.33;;;11.70;99.90;;;;;;4986178;28;20576;-85
2022/10/13 01:01:10;;;;;;;12.77;7.30;;;11.70;99.90;;;;;;4986326;28;20501;-85
2022/10/13 01:03:36;;;;;;;15.43;11.20;;;11.70;99.90;;;;;;4985309;28;20268;-83
2022/10/13 01:06:04;;;;;;;17.97;9.33;;;11.60;99.90;;;;;;4986354;28;20652;-84
2022/10/13 01:08:31;;;;;;;15.03;9.00;;;11.60;99.90;;;;;;5006473;28;20220;-83
2022/10/13 01:11:15;;;;;;;15.73;9.70;;;11.70;99.90;;;;;;4977982;28;20568;-83
2022/10/13 01:13:47;;;;;;;15.20;9.63;;;11.60;99.90;;;;;;5011902;28;20226;-84
2022/10/13 01:16:25;;;;;;;13.30;9.13;;;11.60;99.90;;;;;;4996311;28;20187;-85
2022/10/13 01:19:07;;;;;;;20.50;7.87;;;11.60;99.90;;;;;;4995786;28;20543;-84
2022/10/13 01:22:05;;;;;;;15.03;8.77;;;11.60;99.90;;;;;;4994315;28;20620;-85
2022/10/13 01:24:43;;;;;;;24.97;10.67;;;11.60;99.90;;;;;;4993705;28;20219;-85
2022/10/13 01:27:46;;;;;;;17.47;9.17;;;11.70;99.90;;;;;;4985442;28;20281;-85
2022/10/13 01:30:20;;;;;;;17.47;8.57;;;11.70;99.90;;;;;;4985521;28;20253;-85
2022/10/13 01:33:24;;;;;;;12.63;8.07;;;11.70;99.90;;;;;;4992228;28;20259;-88
2022/10/13 01:36:04;;;;;;;18.23;7.50;;;11.70;99.90;;;;;;4998862;28;20235;-84
2022/10/13 01:39:04;;;;;;;17.50;8.70;;;11.80;99.90;;;;;;4988986;28;20665;-85
2022/10/13 01:41:39;;;;;;;14.00;9.80;;;11.80;99.90;;;;;;4985689;28;20219;-86
2022/10/13 01:44:11;;;;;;;17.03;8.23;;;11.80;99.90;;;;;;5004134;28;20738;-85
2022/10/13 01:46:38;;;;;;;15.73;8.77;;;11.90;99.90;;;;;;5010223;28;20223;-84
2022/10/13 01:49:08;;;;;;;13.30;8.23;;;11.90;99.90;;;;;;4992119;28;21056;-84
2022/10/13 01:51:35;;;;;;;19.47;8.50;;;11.90;99.90;;;;;;4985079;28;20756;-87
2022/10/13 01:54:01;;;;;;;16.40;7.80;;;11.80;99.90;;;;;;4951941;28;20228;-84
2022/10/13 01:56:26;;;;;;;13.80;8.53;;;11.80;99.90;;;;;;4983271;28;20566;-84
2022/10/13 01:58:56;;;;;;;18.87;8.80;;;11.80;99.90;;;;;;4979198;28;20216;-84
2022/10/13 02:01:35;;;;;;;10.23;7.77;;;11.70;99.90;;;;;;4993817;28;20221;-85
2022/10/13 02:04:07;;;;;;;16.97;9.97;;;11.70;99.90;;;;;;4994857;28;20191;-83
2022/10/13 02:06:38;;;;;;;17.03;7.73;;;11.60;99.90;;;;;;4993559;28;20223;-85
2022/10/13 02:09:22;;;;;;;16.43;7.70;;;11.60;99.90;;;;;;5008575;28;20606;-84
2022/10/13 02:11:59;;;;;;;13.67;7.73;;;11.60;99.90;;;;;;4993875;28;20223;-85
2022/10/13 02:14:28;;;;;;;11.13;7.73;;;11.50;99.90;;;;;;4986847;28;20693;-84
2022/10/13 02:16:56;;;;;;;14.87;8.70;;;11.50;99.90;;;;;;4984040;28;20215;-83
2022/10/13 02:19:22;;;;;;;17.03;8.93;;;11.50;99.90;;;;;;4967940;28;20246;-86
2022/10/13 02:21:49;;;;;;;13.17;8.67;;;11.60;99.90;;;;;;4971861;28;20196;-83
2022/10/13 02:24:15;;;;;;;11.00;7.57;;;11.60;99.90;;;;;;4969896;28;20228;-84
2022/10/13 02:26:42;;;;;;;13.03;7.27;;;11.60;99.90;;;;;;4968031;28;20220;-84
2022/10/13 02:29:09;;;;;;;16.60;8.93;;;11.50;99.90;;;;;;4978699;28;20223;-84
2022/10/13 02:31:35;;;;;;;19.97;8.60;;;11.50;99.90;;;;;;4966856;28;20251;-84
2022/10/13 02:34:01;;;;;;;15.50;9.10;;;11.50;99.90;;;;;;4969202;28;20247;-85
2022/10/13 02:36:27;;;;;;;13.77;8.70;;;11.60;99.90;;;;;;4997162;28;20192;-84
2022/10/13 02:38:53;;;;;;;14.40;8.83;;;11.60;99.90;;;;;;4996639;28;20645;-84
2022/10/13 02:41:18;;;;;;;16.17;7.53;;;11.60;99.90;;;;;;4972797;28;20662;-84
2022/10/13 02:43:44;;;;;;;17.47;9.60;;;11.60;99.90;;;;;;4976126;28;20318;-83
2022/10/13 02:46:10;;;;;;;15.53;9.33;;;11.60;99.90;;;;;;4997788;28;20203;-86
2022/10/13 02:48:36;;;;;;;12.17;8.13;;;11.60;99.90;;;;;;5003883;28;20772;-84
2022/10/13 02:51:01;;;;;;;16.33;8.27;;;11.60;99.90;;;;;;4970287;28;20248;-85
2022/10/13 02:53:27;;;;;;;11.53;7.57;;;11.60;99.90;;;;;;4980652;28;20354;-83
2022/10/13 02:55:53;;;;;;;22.50;9.17;;;11.60;99.90;;;;;;4963907;28;20720;-84
2022/10/13 02:58:18;;;;;;;15.60;8.53;;;11.60;99.90;;;;;;4970377;28;20200;-84
2022/10/13 03:00:44;;;;;;;15.30;8.40;;;11.60;99.90;;;;;;4986794;28;20693;-84
2022/10/13 03:03:11;;;;;;;13.27;8.03;;;11.50;99.90;;;;;;4968971;28;21082;-83
2022/10/13 03:05:36;;;;;;;15.33;8.47;;;11.50;99.90;;;;;;4966339;28;20232;-82
2022/10/13 03:08:02;;;;;;;12.57;8.03;;;11.50;99.90;;;;;;4978273;28;20696;-84
2022/10/13 03:10:29;;;;;;;12.13;6.70;;;11.40;99.90;;;;;;4974403;28;20235;-82
2022/10/13 03:12:55;;;;;;;11.87;6.57;;;11.40;99.90;;;;;;4967733;28;20228;-84
2022/10/13 03:15:21;;;;;;;15.30;8.33;;;11.40;99.90;;;;;;4983160;28;20279;-82
2022/10/13 03:17:47;;;;;;;15.03;9.67;;;11.30;99.90;;;;;;4981508;28;20294;-83
2022/10/13 03:20:13;;;;;;;13.07;6.77;;;11.30;99.90;;;;;;4976973;28;20815;-85
2022/10/13 03:22:39;;;;;;;12.97;8.23;;;11.40;99.90;;;;;;4975682;28;20266;-84
2022/10/13 03:25:05;;;;;;;11.37;8.40;;;11.40;99.90;;;;;;4978868;28;20661;-82
2022/10/13 03:27:31;;;;;;;16.40;8.33;;;11.40;99.90;;;;;;4995799;28;20196;-84
2022/10/13 03:29:56;;;;;;;11.43;7.83;;;11.40;99.90;;;;;;4996763;28;20322;-84
2022/10/13 03:32:22;;;;;;;14.50;8.07;;;11.40;99.90;;;;;;4980540;28;20221;-85
2022/10/13 03:34:50;;;;;;;13.67;7.77;;;11.40;99.90;;;;;;4976949;28;20443;-83
2022/10/13 03:37:16;;;;;;;11.93;7.00;;;11.50;99.90;;;;;;4997250;28;20186;-83
2022/10/13 03:39:41;;;;;;;12.47;8.33;;;11.50;99.90;;;;;;5016355;28;20196;-86
2022/10/13 03:42:08;;;;;;;13.03;7.87;;;11.40;99.90;;;;;;4986781;28;21052;-86
2022/10/13 03:44:33;;;;;;;16.13;8.57;;;11.50;99.90;;;;;;4973325;28;20240;-83
2022/10/13 03:46:59;;;;;;;12.97;8.10;;;11.50;99.90;;;;;;4958096;28;20223;-84
2022/10/13 03:49:25;;;;;;;11.27;7.30;;;11.50;99.90;;;;;;4986764;28;20257;-84
2022/10/13 03:51:51;;;;;;;15.70;8.93;;;11.50;99.90;;;;;;5002180;28;20200;-83
2022/10/13 03:54:17;;;;;;;11.03;8.70;;;11.50;99.90;;;;;;4985296;28;20689;-84
2022/10/13 03:56:43;;;;;;;16.00;8.87;;;11.50;99.90;;;;;;4972171;28;20694;-84
2022/10/13 03:59:11;;;;;;;14.37;8.53;;;11.60;99.90;;;;;;4963255;28;20254;-83
2022/10/13 04:01:38;;;;;;;28.23;8.97;;;11.60;99.90;;;;;;5003830;28;20216;-88
2022/10/13 04:04:06;;;;;;;13.00;9.13;;;11.60;99.90;;;;;;4967715;28;20205;-86
2022/10/13 04:06:32;;;;;;;23.77;8.80;;;11.70;99.90;;;;;;4997393;28;20257;-83
2022/10/13 04:08:57;;;;;;;11.53;7.47;;;11.70;99.90;;;;;;4994826;28;20222;-85
2022/10/13 04:11:23;;;;;;;15.23;8.60;;;11.70;99.90;;;;;;4979418;28;20311;-85
2022/10/13 04:13:49;;;;;;;12.27;7.30;;;11.70;99.90;;;;;;4971930;28;20242;-86
2022/10/13 04:16:22;;;;;;;16.57;8.47;;;11.70;99.90;;;;;;4969929;28;20204;-84
2022/10/13 04:18:53;;;;;;;14.57;9.27;;;11.80;99.90;;;;;;4986192;28;20626;-85
2022/10/13 04:21:20;;;;;;;15.10;7.70;;;11.80;99.90;;;;;;4983378;28;20255;-82
2022/10/13 04:23:45;;;;;;;12.83;7.50;;;11.80;99.90;;;;;;4981528;28;20227;-83
2022/10/13 04:26:17;;;;;;;15.97;7.97;;;11.80;99.90;;;;;;4969237;28;20588;-84
2022/10/13 04:28:43;;;;;;;13.17;8.30;;;11.70;99.90;;;;;;4986461;28;20220;-85
2022/10/13 04:31:09;;;;;;;18.93;7.67;;;11.80;99.90;;;;;;4987053;28;20211;-82
2022/10/13 04:33:35;;;;;;;14.87;8.73;;;11.80;99.90;;;;;;4985720;28;20196;-83
2022/10/13 04:36:04;;;;;;;16.13;7.83;;;11.80;99.90;;;;;;4985387;28;20231;-84
2022/10/13 04:38:29;;;;;;;18.07;9.03;;;11.80;99.90;;;;;;4986284;28;20235;-85
2022/10/13 04:40:55;;;;;;;16.73;7.97;;;11.80;99.90;;;;;;4986191;28;20362;-85
2022/10/13 04:43:21;;;;;;;14.87;8.43;;;11.80;99.90;;;;;;4984712;28;20228;-83
2022/10/13 04:45:47;;;;;;;11.60;8.33;;;11.90;99.90;;;;;;4985162;28;20188;-85
2022/10/13 04:48:13;;;;;;;15.10;8.40;;;11.90;99.90;;;;;;4951108;28;20874;-83
2022/10/13 04:50:39;;;;;;;13.00;8.37;;;11.90;99.90;;;;;;4968810;28;20258;-82
2022/10/13 04:53:05;;;;;;;14.83;7.33;;;11.90;99.90;;;;;;4995607;28;20223;-82
2022/10/13 04:55:35;;;;;;;17.97;9.43;;;11.90;99.90;;;;;;4994360;28;20242;-82
2022/10/13 04:58:00;;;;;;;14.80;9.53;;;11.90;99.90;;;;;;4993328;28;20199;-83
2022/10/13 05:00:26;;;;;;;12.10;9.07;;;11.90;99.90;;;;;;5002239;28;20227;-81
2022/10/13 05:02:52;;;;;;;16.57;9.60;;;11.90;99.90;;;;;;4953474;28;20213;-83
2022/10/13 05:05:18;;;;;;;13.63;9.53;;;11.90;99.90;;;;;;4981479;28;20282;-82
2022/10/13 05:07:43;;;;;;;17.57;9.47;;;11.90;99.90;;;;;;4975158;28;20653;-83
2022/10/13 05:10:09;;;;;;;17.20;8.53;;;12.00;99.90;;;;;;4976275;28;20670;-82
2022/10/13 05:12:35;;;;;;;19.63;10.03;;;12.00;99.90;;;;;;4980218;28;20194;-84
2022/10/13 05:15:00;;;;;;;18.10;10.20;;;12.00;99.90;;;;;;4988078;28;20322;-84
2022/10/13 05:17:30;;;;;;;13.50;9.10;;;12.00;99.90;;;;;;4957110;28;20757;-81
2022/10/13 05:19:55;;;;;;;19.67;10.07;;;12.00;99.90;;;;;;4992269;28;20687;-82
2022/10/13 05:22:21;;;;;;;16.03;10.77;;;12.10;99.90;;;;;;4993341;28;20259;-83
2022/10/13 05:24:47;;;;;;;14.90;10.60;;;12.10;99.90;;;;;;4969006;28;20287;-84
2022/10/13 05:27:13;;;;;;;16.23;9.60;;;12.10;99.90;;;;;;4934361;28;20721;-83
2022/10/13 05:29:39;;;;;;;13.63;8.33;;;12.00;99.90;;;;;;4960868;28;20224;-83
2022/10/13 05:32:05;;;;;;;16.57;8.87;;;12.00;99.90;;;;;;4969388;28;20228;-83
2022/10/13 05:34:31;;;;;;;13.53;9.40;;;12.10;99.90;;;;;;4971237;28;20387;-83
2022/10/13 05:36:59;;;;;;;15.93;9.17;;;12.00;99.90;;;;;;4980933;28;20639;-84
2022/10/13 05:39:24;;;;;;;13.27;8.37;;;12.00;99.90;;;;;;4985055;28;20251;-82
2022/10/13 05:41:50;;;;;;;16.63;10.47;;;12.00;99.90;;;;;;4985323;28;20240;-84
2022/10/13 05:44:16;;;;;;;19.67;10.30;;;12.00;99.90;;;;;;4942093;28;20264;-83
2022/10/13 05:46:42;;;;;;;16.77;8.93;;;12.00;99.90;;;;;;4974248;28;20227;-87
2022/10/13 05:49:09;;;;;;;18.63;10.33;;;11.90;99.90;;;;;;4993697;28;20204;-83
2022/10/13 05:51:42;;;;;;;12.47;8.73;;;11.90;99.90;;;;;;4984257;28;20601;-83
2022/10/13 05:54:34;;;;;;;14.33;9.13;;;11.90;99.90;;;;;;4982132;28;20694;-83
2022/10/13 05:57:03;;;;;;;14.33;9.20;;;11.90;99.90;;;;;;4984073;28;20231;-82
2022/10/13 05:59:33;;;;;;;17.67;10.07;;;12.00;99.90;;;;;;4987793;28;20584;-83
2022/10/13 06:02:01;;;;;;;18.50;9.37;;;12.00;99.90;;;;;;4991474;28;20298;-87
2022/10/13 06:04:34;;;;;;;17.77;9.60;;;12.00;99.90;;;;;;4990302;28;20218;-87
2022/10/13 06:07:00;;;;;;;14.57;9.23;;;12.00;99.90;;;;;;4997637;28;20175;-87
2022/10/13 06:09:33;;;;;;;18.77;10.87;;;12.00;99.90;;;;;;4953858;28;20220;-88
2022/10/13 06:11:59;;;;;;;19.27;10.50;;;12.00;99.90;;;;;;4984884;28;20705;-90
2022/10/13 06:14:25;;;;;;;15.90;11.50;;;12.00;99.90;;;;;;4960243;28;20415;-87
2022/10/13 06:16:51;;;;;;;16.93;11.37;;;12.00;99.90;;;;;;4954852;28;20260;-87
2022/10/13 06:19:16;;;;;;;19.93;10.43;;;12.00;99.90;;;;;;4954928;28;20204;-86
2022/10/13 06:21:42;;;;;;;16.47;10.27;;;12.10;99.90;;;;;;4999111;28;20188;-88
2022/10/13 06:24:08;;;;;;;16.43;9.70;;;12.10;99.90;;;;;;4988820;28;20235;-86
2022/10/13 06:26:33;;;;;;;13.07;9.43;;;12.10;99.90;;;;;;4987032;28;20692;-89
2022/10/13 06:28:59;;;;;;;16.03;11.37;;;12.20;99.90;;;;;;4986671;28;20226;-88
2022/10/13 06:31:25;;;;;;;16.37;10.53;;;12.20;99.90;;;;;;4986758;28;20299;-89
2022/10/13 06:33:51;;;;;;;17.57;10.10;;;12.20;99.90;;;;;;4988036;28;20188;-87
2022/10/13 06:36:17;;;;;;;17.60;11.83;;;12.20;99.90;;;;;;4977610;28;20266;-88
2022/10/13 06:38:42;;;;;;;17.97;11.13;;;12.20;99.90;;;;;;4994086;28;20743;-88
2022/10/13 06:41:08;;;;;;;23.47;12.27;;;12.30;99.90;;;;;;4999758;28;20224;-88
2022/10/13 06:43:34;;;;;;;19.77;10.57;;;12.30;99.90;;;;;;4952077;28;20243;-87
2022/10/13 06:46:00;;;;;;;19.97;11.03;;;12.30;99.90;;;;;;4967455;28;20208;-89
2022/10/13 06:48:27;;;;;;;23.57;10.37;;;12.30;99.90;;;;;;4997611;28;20244;-89
2022/10/13 06:50:52;;;;;;;15.10;9.63;;;12.40;99.90;;;;;;4995397;28;20227;-89
2022/10/13 06:53:19;;;;;;;17.30;10.20;;;12.30;99.90;;;;;;4995778;28;20692;-92
2022/10/13 06:55:45;;;;;;;14.30;9.63;;;12.30;99.90;;;;;;4996540;28;20227;-87
2022/10/13 06:58:10;;;;;;;25.00;12.20;;;12.40;99.90;;;;;;4997946;28;20534;-88
2022/10/13 07:00:39;;;;;;;18.77;11.30;;;12.50;99.90;;;;;;4982445;28;20199;-85
2022/10/13 07:03:04;;;;;;;20.20;12.40;;;12.50;99.90;;;;;;4995758;28;20208;-89
2022/10/13 07:05:31;;;;;;;23.27;12.10;;;12.50;99.90;;;;;;4994443;28;20230;-89
2022/10/13 07:07:56;;;;;;;21.03;13.77;;;12.70;99.90;;;;;;4995420;28;20283;-85
2022/10/13 07:10:22;;;;;;;21.37;13.37;;;12.70;99.90;;;;;;4970316;28;20231;-87
2022/10/13 07:12:48;;;;;;;24.80;12.63;;;12.80;99.90;;;;;;4987387;28;20187;-86
2022/10/13 07:15:14;;;;;;;20.47;12.53;;;12.90;99.90;;;;;;4984395;28;20673;-88
2022/10/13 07:17:40;;;;;;;24.77;13.97;;;12.90;99.90;;;;;;4984273;28;20204;-87
2022/10/13 07:20:06;;;;;;;21.90;11.57;;;13.00;99.90;;;;;;4969793;28;20220;-87
2022/10/13 07:22:32;;;;;;;38.70;18.27;;;13.00;99.90;;;;;;4958638;28;20223;-89
2022/10/13 07:24:58;;;;;;;33.53;18.83;;;13.00;99.90;;;;;;4999356;28;20204;-87
2022/10/13 07:27:23;;;;;;;26.83;16.07;;;13.00;99.90;;;;;;4992638;28;20231;-86
2022/10/13 07:29:49;;;;;;;32.77;15.13;;;13.10;99.90;;;;;;4940412;28;20678;-88
2022/10/13 07:32:15;;;;;;;24.27;14.53;;;13.20;99.90;;;;;;4975445;28;20224;-86
2022/10/13 07:34:41;;;;;;;16.30;12.10;;;13.30;99.90;;;;;;4972368;28;20250;-91
2022/10/13 07:37:07;;;;;;;28.13;16.63;;;13.30;99.90;;;;;;4992845;28;20207;-86
2022/10/13 07:39:33;;;;;;;26.40;12.97;;;13.30;99.90;;;;;;4987513;28;20192;-87
2022/10/13 07:41:59;;;;;;;27.70;13.13;;;13.30;99.90;;;;;;4953668;28;20252;-87
2022/10/13 07:44:25;;;;;;;25.13;14.03;;;13.40;99.90;;;;;;4973129;28;20250;-91
2022/10/13 07:46:50;;;;;;;25.10;14.63;;;13.40;99.90;;;;;;4965300;28;20244;-86
2022/10/13 07:49:16;;;;;;;36.20;16.40;;;13.50;99.90;;;;;;4967839;28;20290;-88
2022/10/13 07:51:43;;;;;;;31.40;13.40;;;13.60;99.90;;;;;;4985260;28;20195;-86
2022/10/13 07:54:09;;;;;;;24.93;15.07;;;13.60;99.90;;;;;;4994533;28;20230;-87
2022/10/13 07:56:35;;;;;;;24.73;15.17;;;13.70;99.90;;;;;;4996258;28;20218;-89
2022/10/13 07:59:01;;;;;;;26.97;15.57;;;13.80;99.90;;;;;;4974034;28;20310;-88
2022/10/13 08:01:27;;;;;;;30.37;13.53;;;13.80;99.90;;;;;;4974293;28;20378;-85
2022/10/13 08:03:55;;;;;;;33.63;15.60;;;13.90;99.90;;;;;;4967330;28;20718;-86
2022/10/13 08:06:21;;;;;;;33.53;13.93;;;13.90;99.90;;;;;;4993756;28;20227;-89
2022/10/13 08:08:47;;;;;;;26.10;14.57;;;13.90;99.90;;;;;;4980752;28;20246;-87
2022/10/13 08:11:14;;;;;;;29.30;14.03;;;14.00;99.90;;;;;;4992001;28;21170;-88
2022/10/13 08:13:40;;;;;;;29.67;16.17;;;14.10;99.90;;;;;;4986912;28;20717;-88
2022/10/13 08:16:06;;;;;;;23.17;12.33;;;14.20;99.90;;;;;;4986522;28;20240;-85
2022/10/13 08:18:32;;;;;;;23.30;14.80;;;14.20;99.90;;;;;;4970361;28;20191;-85
2022/10/13 08:21:02;;;;;;;18.47;11.73;;;14.30;99.90;;;;;;4954856;28;20230;-87
2022/10/13 08:23:29;;;;;;;23.00;12.13;;;14.30;99.90;;;;;;4985600;28;20282;-85
2022/10/13 08:25:55;;;;;;;22.40;11.77;;;14.30;99.90;;;;;;4995126;28;20236;-87
2022/10/13 08:28:24;;;;;;;27.87;12.87;;;14.30;99.90;;;;;;4969721;28;20228;-86
2022/10/13 08:30:52;;;;;;;25.30;12.37;;;14.40;99.90;;;;;;5003324;28;20193;-87
2022/10/13 08:33:19;;;;;;;37.30;13.57;;;14.40;99.90;;;;;;4996502;28;20216;-87
2022/10/13 08:35:45;;;;;;;16.37;8.70;;;14.50;99.90;;;;;;4989941;28;20231;-85
2022/10/13 08:38:11;;;;;;;15.57;10.53;;;14.50;99.90;;;;;;4985518;28;20311;-88
2022/10/13 08:40:38;;;;;;;25.33;13.77;;;14.50;99.90;;;;;;4981410;28;20217;-85
2022/10/13 08:43:08;;;;;;;27.30;13.80;;;14.70;99.90;;;;;;4966850;28;20243;-85
2022/10/13 08:45:34;;;;;;;24.37;12.30;;;14.70;99.90;;;;;;4987574;28;20243;-89
2022/10/13 08:48:21;;;;;;;24.77;12.90;;;14.80;99.90;;;;;;4986068;28;20215;-85
2022/10/13 08:50:51;;;;;;;22.73;11.80;;;14.80;99.90;;;;;;5008776;28;20265;-87
2022/10/13 08:53:30;;;;;;;27.70;12.37;;;14.90;99.90;;;;;;4996031;28;20259;-86
2022/10/13 08:56:26;;;;;;;31.33;11.53;;;14.90;99.90;;;;;;4992857;28;20215;-85
2022/10/13 08:58:55;;;;;;;18.30;10.33;;;15.00;99.90;;;;;;4996840;28;20666;-88
2022/10/13 09:01:28;;;;;;;22.63;12.30;;;15.00;99.90;;;;;;4996995;28;20285;-88
2022/10/13 09:04:01;;;;;;;21.30;9.33;;;15.00;99.90;;;;;;5002959;28;20184;-85
2022/10/13 09:06:41;;;;;;;22.30;10.73;;;15.10;99.90;;;;;;5001831;28;20247;-86
2022/10/13 09:09:10;;;;;;;20.07;10.67;;;15.10;99.90;;;;;;4985804;28;20574;-88
2022/10/13 09:11:46;;;;;;;21.67;11.13;;;15.10;99.90;;;;;;4988862;28;20263;-87
2022/10/13 09:14:26;;;;;;;23.33;11.43;;;15.00;99.90;;;;;;4996601;28;20235;-87
2022/10/13 09:16:54;;;;;;;16.50;9.63;;;15.00;99.90;;;;;;4996389;28;20223;-87
2022/10/13 09:19:37;;;;;;;19.47;11.53;;;15.00;99.90;;;;;;4996636;28;20269;-86
2022/10/13 09:22:27;;;;;;;18.20;10.60;;;15.00;99.90;;;;;;5002976;28;20180;-88
2022/10/13 09:25:06;;;;;;;16.07;10.53;;;15.00;99.90;;;;;;4985792;28;20323;-85
2022/10/13 09:27:53;;;;;;;17.97;10.43;;;15.00;99.90;;;;;;4967588;28;20282;-86
2022/10/13 09:30:42;;;;;;;15.23;10.50;;;15.00;99.90;;;;;;5000221;28;20278;-87
2022/10/13 09:33:08;;;;;;;17.60;9.73;;;15.00;99.90;;;;;;4985988;28;20216;-85
2022/10/13 09:35:35;;;;;;;23.53;10.07;;;15.10;99.90;;;;;;4984804;28;20234;-86
2022/10/13 09:38:03;;;;;;;21.17;11.50;;;15.10;99.90;;;;;;4988574;28;20219;-88
2022/10/13 09:40:31;;;;;;;16.63;10.90;;;15.20;99.90;;;;;;4996840;28;20505;-86
2022/10/13 09:42:59;;;;;;;20.47;9.70;;;15.20;99.90;;;;;;4996945;28;20692;-85
2022/10/13 09:45:26;;;;;;;16.67;8.30;;;15.30;99.90;;;;;;4994507;28;20760;-86
2022/10/13 09:48:04;;;;;;;21.40;9.90;;;15.40;99.90;;;;;;4992713;28;20224;-86
2022/10/13 09:50:31;;;;;;;17.50;10.47;;;15.40;99.90;;;;;;4996365;28;20221;-85
2022/10/13 09:53:19;;;;;;;16.57;9.47;;;15.40;99.90;;;;;;4995201;28;20301;-86
2022/10/13 09:55:47;;;;;;;15.07;9.03;;;15.40;99.90;;;;;;5008758;28;20242;-89
2022/10/13 09:58:28;;;;;;;17.87;9.43;;;15.50;99.90;;;;;;5012792;28;20326;-85
2022/10/13 10:00:56;;;;;;;17.97;8.47;;;15.50;99.90;;;;;;5012772;28;20523;-87
2022/10/13 10:03:35;;;;;;;14.83;9.43;;;15.60;99.90;;;;;;4987519;28;20226;-86
2022/10/13 10:06:06;;;;;;;11.90;7.80;;;15.70;99.90;;;;;;4984770;28;20270;-87
2022/10/13 10:08:58;;;;;;;22.50;8.67;;;15.70;99.90;;;;;;4990208;28;20228;-86
2022/10/13 10:11:31;;;;;;;15.13;8.77;;;15.80;99.90;;;;;;4995443;28;20214;-85
2022/10/13 10:14:01;;;;;;;15.43;8.13;;;15.80;99.90;;;;;;4996094;28;20684;-88
2022/10/13 10:16:44;;;;;;;15.10;7.17;;;15.80;99.90;;;;;;5010388;28;20231;-87
2022/10/13 10:19:41;;;;;;;12.87;7.87;;;15.90;99.90;;;;;;4994480;28;20211;-88
2022/10/13 10:22:26;;;;;;;10.33;6.60;;;15.90;99.90;;;;;;4995272;28;20195;-90
2022/10/13 10:25:04;;;;;;;10.83;6.33;;;15.90;99.90;;;;;;4986278;28;20254;-87
2022/10/13 10:27:43;;;;;;;16.40;7.20;;;16.00;99.90;;;;;;4981686;28;20641;-88
2022/10/13 10:30:17;;;;;;;6.47;5.77;;;16.00;99.90;;;;;;4973035;28;20291;-89
2022/10/13 10:33:02;;;;;;;9.93;4.70;;;16.00;99.90;;;;;;4975713;28;20219;-87
2022/10/13 10:36:01;;;;;;;9.80;6.17;;;16.00;99.90;;;;;;4980383;28;20571;-89
2022/10/13 10:38:54;;;;;;;8.83;6.53;;;16.00;99.90;;;;;;4974565;28;20255;-87
2022/10/13 10:41:24;;;;;;;8.20;5.47;;;16.10;99.90;;;;;;4997697;28;20220;-87
2022/10/13 10:44:14;;;;;;;8.33;4.87;;;16.10;99.90;;;;;;4995991;28;20263;-88
2022/10/13 10:47:03;;;;;;;8.93;4.57;;;16.20;99.90;;;;;;4998945;28;20596;-88
2022/10/13 10:49:39;;;;;;;9.83;4.70;;;16.20;99.90;;;;;;4984893;28;20216;-87
2022/10/13 10:52:15;;;;;;;12.73;5.27;;;16.40;99.90;;;;;;4969423;28;20189;-88
2022/10/13 10:54:43;;;;;;;10.00;4.87;;;16.30;99.90;;;;;;4997345;28;20219;-88
2022/10/13 10:57:15;;;;;;;9.20;5.00;;;16.30;99.90;;;;;;4988235;28;20224;-89
2022/10/13 11:00:05;;;;;;;6.03;3.70;;;16.30;99.90;;;;;;4982337;28;20231;-86
2022/10/13 11:02:59;;;;;;;9.07;3.73;;;16.30;99.90;;;;;;4975864;28;20392;-89
2022/10/13 11:05:49;;;;;;;5.47;3.27;;;16.40;99.90;;;;;;4979899;28;20266;-88
2022/10/13 11:08:45;;;;;;;7.47;3.57;;;16.60;99.90;;;;;;4988005;28;20255;-90
2022/10/13 11:11:29;;;;;;;6.00;2.57;;;16.50;99.90;;;;;;4988329;28;20861;-89
2022/10/13 11:14:01;;;;;;;3.20;3.00;;;16.50;99.90;;;;;;4980749;28;20216;-87
2022/10/13 11:17:01;;;;;;;6.70;2.37;;;16.60;99.90;;;;;;4973510;28;20632;-88
2022/10/13 11:19:37;;;;;;;2.83;2.60;;;16.70;99.90;;;;;;4996894;28;20223;-86
2022/10/13 11:22:04;;;;;;;5.73;2.50;;;16.60;99.90;;;;;;4997860;28;20176;-88
2022/10/13 11:24:32;;;;;;;17.50;2.57;;;16.70;99.90;;;;;;5000471;28;20298;-89
2022/10/13 11:27:33;;;;;;;1.23;1.13;;;16.70;99.90;;;;;;4996899;28;20323;-87
2022/10/13 11:30:00;;;;;;;2.20;1.70;;;16.30;99.90;;;;;;4988254;28;20221;-89
2022/10/13 11:35:09;;;;;;;3.50;2.07;;;16.50;99.90;;;;;;4993606;28;20238;-89
2022/10/13 11:37:35;;;;;;;1.70;1.53;;;16.70;99.90;;;;;;4982784;28;20223;-89
2022/10/13 11:40:27;;;;;;;8.00;1.20;;;16.90;99.90;;;;;;4969692;28;20527;-91
2022/10/13 11:42:56;;;;;;;2.17;1.03;;;16.90;99.90;;;;;;5001036;28;20236;-87
2022/10/13 11:45:40;;;;;;;2.43;1.30;;;17.00;99.90;;;;;;4995384;28;20379;-89
2022/10/13 11:48:24;;;;;;;5.47;1.20;;;17.10;99.90;;;;;;4998036;28;20680;-89
2022/10/13 11:51:15;;;;;;;1.83;1.00;;;17.40;99.90;;;;;;4997313;28;20224;-89
2022/10/13 11:53:52;;;;;;;1.53;0.60;;;17.50;99.90;;;;;;4991500;28;20303;-88
2022/10/13 11:56:33;;;;;;;3.03;1.10;;;17.50;99.90;;;;;;4978510;28;20239;-93
2022/10/13 11:58:59;;;;;;;4.43;1.73;;;17.40;99.90;;;;;;4988143;28;20315;-92
2022/10/13 12:01:24;;;;;;;3.83;1.30;;;17.50;99.90;;;;;;4987298;28;20281;-86
2022/10/13 12:03:50;;;;;;;3.53;0.90;;;17.40;99.90;;;;;;4988110;28;20526;-90
2022/10/13 12:06:32;;;;;;;3.17;1.47;;;17.40;99.90;;;;;;4969143;28;20221;-89
2022/10/13 12:09:04;;;;;;;1.17;0.87;;;17.30;99.90;;;;;;4983862;28;20214;-89
2022/10/13 12:11:34;;;;;;;4.10;1.00;;;17.10;99.90;;;;;;5001840;28;20224;-88
2022/10/13 12:14:02;;;;;;;3.13;1.30;;;17.10;99.90;;;;;;4994966;28;20215;-87
2022/10/13 12:16:28;;;;;;;7.13;1.20;;;17.20;99.90;;;;;;4997192;28;20672;-88
2022/10/13 12:19:07;;;;;;;1.37;1.27;;;17.20;99.90;;;;;;4980385;28;20187;-85
2022/10/13 12:21:33;;;;;;;4.47;1.53;;;17.20;99.90;;;;;;4988268;28;20262;-88
2022/10/13 12:24:08;;;;;;;2.63;1.17;;;17.30;99.90;;;;;;5012718;28;20219;-89
2022/10/13 12:26:33;;;;;;;2.40;0.80;;;17.40;99.90;;;;;;4991615;28;20212;-87
2022/10/13 12:29:09;;;;;;;2.90;1.07;;;17.50;99.90;;;;;;4935787;28;20738;-88
2022/10/13 12:31:47;;;;;;;2.00;1.13;;;17.20;99.90;;;;;;4972379;28;20231;-86
2022/10/13 12:34:20;;;;;;;2.40;0.90;;;17.00;99.90;;;;;;5003314;28;20179;-87
2022/10/13 12:37:29;;;;;;;3.67;0.90;;;16.80;99.90;;;;;;4998361;28;20191;-88
2022/10/13 12:39:57;;;;;;;8.30;1.33;;;16.80;99.90;;;;;;4962152;28;20216;-89
2022/10/13 12:42:31;;;;;;;2.60;0.80;;;16.60;99.90;;;;;;4956794;28;20231;-87
2022/10/13 12:44:58;;;;;;;3.43;0.70;;;16.50;99.90;;;;;;4984696;28;20244;-86
2022/10/13 12:47:47;;;;;;;4.07;2.13;;;16.40;99.90;;;;;;4974228;28;20306;-88
2022/10/13 12:50:22;;;;;;;5.17;1.30;;;16.50;99.90;;;;;;4980486;28;20608;-88
2022/10/13 12:52:53;;;;;;;1.37;1.27;;;16.40;99.90;;;;;;4987959;28;20235;-89
2022/10/13 12:55:21;;;;;;;2.00;1.80;;;16.30;99.90;;;;;;4966804;28;20721;-90
2022/10/13 12:57:51;;;;;;;1.67;0.67;;;16.30;99.90;;;;;;4969039;28;20181;-87